createdAt,value
2018-08-16T00:01:33.935Z,11.03
2018-08-16T00:04:02.370Z,6.80
2018-08-16T00:06:30.852Z,6.50
2018-08-16T00:08:59.265Z,7.70
2018-08-16T00:11:27.649Z,6.80
2018-08-16T00:13:56.096Z,7.30
2018-08-16T00:16:24.493Z,5.87
2018-08-16T00:18:52.959Z,8.37
2018-08-16T00:21:21.342Z,7.30
2018-08-16T00:23:49.688Z,7.03
2018-08-16T00:26:18.115Z,9.23
2018-08-16T00:28:46.463Z,7.67
2018-08-16T00:31:14.851Z,7.93
2018-08-16T00:33:43.350Z,8.33
2018-08-16T00:36:11.687Z,9.37
2018-08-16T00:38:40.127Z,7.53
2018-08-16T00:41:08.581Z,7.80
2018-08-16T00:43:37.026Z,6.57
2018-08-16T00:46:07.149Z,7.47
2018-08-16T00:48:35.747Z,7.57
2018-08-16T00:51:04.144Z,8.00
2018-08-16T00:53:32.534Z,7.13
2018-08-16T00:56:00.935Z,6.83
2018-08-16T00:58:29.348Z,6.93
2018-08-16T01:00:57.746Z,6.30
2018-08-16T01:03:26.175Z,8.00
2018-08-16T01:05:54.556Z,7.13
2018-08-16T01:08:22.955Z,6.90
2018-08-16T01:10:51.342Z,7.70
2018-08-16T01:13:19.735Z,8.50
2018-08-16T01:15:48.154Z,9.20
2018-08-16T01:18:16.526Z,7.60
2018-08-16T01:20:44.981Z,7.00
2018-08-16T01:23:13.366Z,8.57
2018-08-16T01:25:41.746Z,7.83
2018-08-16T01:28:10.215Z,7.50
2018-08-16T01:30:38.697Z,8.70
2018-08-16T01:33:07.108Z,7.20
2018-08-16T01:35:35.612Z,8.67
2018-08-16T01:38:03.935Z,8.10
2018-08-16T01:40:32.376Z,9.37
2018-08-16T01:43:00.777Z,8.60
2018-08-16T01:45:29.180Z,9.00
2018-08-16T01:47:57.543Z,8.93
2018-08-16T01:50:25.953Z,8.70
2018-08-16T01:52:54.370Z,9.27
2018-08-16T01:55:22.786Z,8.83
2018-08-16T01:57:51.132Z,8.90
2018-08-16T02:00:19.588Z,8.40
2018-08-16T02:02:47.973Z,7.80
2018-08-16T02:05:16.387Z,8.17
2018-08-16T02:07:44.739Z,8.70
2018-08-16T02:10:13.082Z,8.53
2018-08-16T02:12:41.501Z,8.37
2018-08-16T02:15:11.656Z,8.10
2018-08-16T02:17:40.114Z,8.57
2018-08-16T02:20:10.516Z,8.30
2018-08-16T02:22:39.393Z,8.87
2018-08-16T02:25:07.829Z,8.30
2018-08-16T02:27:36.230Z,8.20
2018-08-16T02:30:05.743Z,7.93
2018-08-16T02:32:34.097Z,7.90
2018-08-16T02:35:02.439Z,6.70
2018-08-16T02:37:30.904Z,8.73
2018-08-16T02:39:59.281Z,8.00
2018-08-16T02:42:27.676Z,7.70
2018-08-16T02:44:56.101Z,8.33
2018-08-16T02:47:24.524Z,6.93
2018-08-16T02:49:57.105Z,7.43
2018-08-16T02:52:26.219Z,8.27
2018-08-16T02:54:54.651Z,7.37
2018-08-16T02:57:23.012Z,8.43
2018-08-16T02:59:51.468Z,9.07
2018-08-16T03:02:19.905Z,8.27
2018-08-16T03:04:48.293Z,7.27
2018-08-16T03:07:16.661Z,8.40
2018-08-16T03:09:45.653Z,7.93
2018-08-16T03:12:14.075Z,8.90
2018-08-16T03:14:42.682Z,10.63
2018-08-16T03:17:11.167Z,8.83
2018-08-16T03:19:39.646Z,9.07
2018-08-16T03:22:08.085Z,8.63
2018-08-16T03:24:36.508Z,8.00
2018-08-16T03:27:04.906Z,9.03
2018-08-16T03:29:33.265Z,9.33
2018-08-16T03:32:01.646Z,7.17
2018-08-16T03:34:30.034Z,8.63
2018-08-16T03:36:58.425Z,7.80
2018-08-16T03:39:26.784Z,7.83
2018-08-16T03:41:55.283Z,8.07
2018-08-16T03:44:23.653Z,8.10
2018-08-16T03:46:52.016Z,8.50
2018-08-16T03:49:20.390Z,9.73
2018-08-16T03:51:48.818Z,8.80
2018-08-16T03:54:17.192Z,9.23
2018-08-16T03:56:45.642Z,8.27
2018-08-16T03:59:14.000Z,8.37
2018-08-16T04:01:42.389Z,8.27
2018-08-16T04:04:10.714Z,8.17
2018-08-16T04:06:39.159Z,7.83
2018-08-16T04:09:14.083Z,8.87
2018-08-16T04:11:42.455Z,9.07
2018-08-16T04:14:10.805Z,9.57
2018-08-16T04:16:39.252Z,8.50
2018-08-16T04:19:07.656Z,9.10
2018-08-16T04:21:36.116Z,8.60
2018-08-16T04:24:04.548Z,8.60
2018-08-16T04:26:32.908Z,8.20
2018-08-16T04:29:01.270Z,9.23
2018-08-16T04:31:29.702Z,8.63
2018-08-16T04:33:58.286Z,9.33
2018-08-16T04:36:26.665Z,9.37
2018-08-16T04:38:55.034Z,8.13
2018-08-16T04:41:23.647Z,9.97
2018-08-16T04:43:51.959Z,9.77
2018-08-16T04:46:20.338Z,10.83
2018-08-16T04:48:48.685Z,10.50
2018-08-16T04:51:17.033Z,10.77
2018-08-16T04:53:45.391Z,10.13
2018-08-16T04:56:13.769Z,9.73
2018-08-16T04:58:42.179Z,9.77
2018-08-16T05:01:10.584Z,9.60
2018-08-16T05:03:38.926Z,9.20
2018-08-16T05:06:07.357Z,10.83
2018-08-16T05:08:35.814Z,9.47
2018-08-16T05:11:04.217Z,9.00
2018-08-16T05:13:32.578Z,8.17
2018-08-16T05:16:01.028Z,10.60
2018-08-16T05:18:29.889Z,8.63
2018-08-16T05:20:58.250Z,9.90
2018-08-16T05:23:26.576Z,15.30
2018-08-16T05:25:55.037Z,9.50
2018-08-16T05:28:23.462Z,8.90
2018-08-16T05:30:51.943Z,8.07
2018-08-16T05:33:20.363Z,9.07
2018-08-16T05:35:52.922Z,10.10
2018-08-16T05:38:21.422Z,9.20
2018-08-16T05:40:49.813Z,8.93
2018-08-16T05:43:18.389Z,9.10
2018-08-16T05:45:47.082Z,8.47
2018-08-16T05:48:15.497Z,9.40
2018-08-16T05:50:44.162Z,8.87
2018-08-16T05:53:12.733Z,9.20
2018-08-16T05:55:41.058Z,9.43
2018-08-16T05:58:09.444Z,8.63
2018-08-16T06:00:41.953Z,10.27
2018-08-16T06:03:10.622Z,8.40
2018-08-16T06:05:39.142Z,8.20
2018-08-16T06:08:07.655Z,7.73
2018-08-16T06:10:36.091Z,9.60
2018-08-16T06:13:04.518Z,8.67
2018-08-16T06:15:33.237Z,10.67
2018-08-16T06:18:01.581Z,8.40
2018-08-16T06:20:30.199Z,8.67
2018-08-16T06:22:58.704Z,7.87
2018-08-16T06:25:27.351Z,8.90
2018-08-16T06:27:55.830Z,11.43
2018-08-16T06:30:24.327Z,7.63
2018-08-16T06:32:52.839Z,8.57
2018-08-16T06:35:21.341Z,8.47
2018-08-16T06:37:49.824Z,8.60
2018-08-16T06:40:18.256Z,8.30
2018-08-16T06:42:47.705Z,8.47
2018-08-16T06:45:16.213Z,9.00
2018-08-16T06:47:44.710Z,8.67
2018-08-16T06:50:13.127Z,8.50
2018-08-16T06:52:41.763Z,8.17
2018-08-16T06:55:10.733Z,8.93
2018-08-16T06:57:39.211Z,8.67
2018-08-16T07:00:08.215Z,9.87
2018-08-16T07:02:36.891Z,9.03
2018-08-16T07:05:06.091Z,9.17
2018-08-16T07:07:34.515Z,9.77
2018-08-16T07:10:02.960Z,9.77
2018-08-16T07:12:31.441Z,9.03
2018-08-16T07:14:59.832Z,7.73
2018-08-16T07:17:28.522Z,10.00
2018-08-16T07:19:56.948Z,10.23
2018-08-16T07:22:25.342Z,9.53
2018-08-16T07:24:53.775Z,10.10
2018-08-16T07:27:22.115Z,10.00
2018-08-16T07:29:50.648Z,9.50
2018-08-16T07:32:18.969Z,11.67
2018-08-16T07:34:47.391Z,8.30
2018-08-16T07:37:15.868Z,8.10
2018-08-16T07:39:44.301Z,9.57
2018-08-16T07:42:12.815Z,9.30
2018-08-16T07:44:41.206Z,9.27
2018-08-16T07:47:09.573Z,11.97
2018-08-16T07:49:39.037Z,9.40
2018-08-16T07:52:07.418Z,8.40
2018-08-16T07:54:35.758Z,10.03
2018-08-16T07:57:04.260Z,10.10
2018-08-16T07:59:32.569Z,9.97
2018-08-16T08:02:00.980Z,9.23
2018-08-16T08:04:29.370Z,9.33
2018-08-16T08:06:57.796Z,9.67
2018-08-16T08:09:26.417Z,10.03
2018-08-16T08:11:54.602Z,10.50
2018-08-16T08:14:23.007Z,9.80
2018-08-16T08:16:51.422Z,9.27
2018-08-16T08:19:19.918Z,10.23
2018-08-16T08:21:48.320Z,23.20
2018-08-16T08:24:16.700Z,10.77
2018-08-16T08:26:45.114Z,9.70
2018-08-16T08:29:13.490Z,11.00
2018-08-16T08:31:42.149Z,11.63
2018-08-16T08:34:10.574Z,11.00
2018-08-16T08:36:50.262Z,13.23
2018-08-16T08:39:18.623Z,15.30
2018-08-16T08:41:47.006Z,9.83
2018-08-16T08:44:18.667Z,10.63
2018-08-16T08:46:48.531Z,9.60
2018-08-16T08:49:17.121Z,9.03
2018-08-16T08:51:45.626Z,8.83
2018-08-16T08:54:35.019Z,8.53
2018-08-16T08:57:14.667Z,9.20
2018-08-16T08:59:43.141Z,8.13
2018-08-16T09:02:12.034Z,8.60
2018-08-16T09:04:41.079Z,8.17
2018-08-16T09:07:11.643Z,9.15
2018-08-16T09:09:53.949Z,9.93
2018-08-16T09:12:33.617Z,8.23
2018-08-16T09:15:13.229Z,9.23
2018-08-16T09:17:41.644Z,7.80
2018-08-16T09:20:10.062Z,8.93
2018-08-16T09:22:38.513Z,8.20
2018-08-16T09:25:06.895Z,7.67
2018-08-16T09:27:35.225Z,7.00
2018-08-16T09:30:16.906Z,11.70
2018-08-16T09:32:56.882Z,7.70
2018-08-16T09:35:26.122Z,8.43
2018-08-16T09:37:54.509Z,7.10
2018-08-16T09:40:22.960Z,7.07
2018-08-16T09:42:51.434Z,6.17
2018-08-16T09:45:31.260Z,7.00
2018-08-16T09:48:10.808Z,5.60
2018-08-16T09:50:39.279Z,6.43
2018-08-16T09:53:07.679Z,6.30
2018-08-16T09:55:36.268Z,6.47
2018-08-16T09:58:04.751Z,5.93
2018-08-16T10:00:38.465Z,6.17
2018-08-16T10:03:06.848Z,5.93
2018-08-16T10:05:35.272Z,5.30
2018-08-16T10:08:03.869Z,5.60
2018-08-16T10:10:32.329Z,5.33
2018-08-16T10:13:00.681Z,5.43
2018-08-16T10:15:29.051Z,5.03
2018-08-16T10:17:57.422Z,8.17
2018-08-16T10:20:25.870Z,5.43
2018-08-16T10:22:54.204Z,5.40
2018-08-16T10:25:22.569Z,5.67
2018-08-16T10:27:50.990Z,5.43
2018-08-16T10:30:19.464Z,5.27
2018-08-16T10:32:47.877Z,5.63
2018-08-16T10:35:16.307Z,6.10
2018-08-16T10:37:44.798Z,10.03
2018-08-16T10:40:13.156Z,4.77
2018-08-16T10:42:41.789Z,4.47
2018-08-16T10:45:10.220Z,5.50
2018-08-16T10:47:38.658Z,4.27
2018-08-16T10:50:07.059Z,4.40
2018-08-16T10:52:35.422Z,5.23
2018-08-16T10:55:03.897Z,7.57
2018-08-16T10:57:32.475Z,4.70
2018-08-16T11:00:00.904Z,4.73
2018-08-16T11:02:29.249Z,5.00
2018-08-16T11:04:57.573Z,7.33
2018-08-16T11:07:26.010Z,5.53
2018-08-16T11:09:54.314Z,4.50
2018-08-16T11:12:22.675Z,4.57
2018-08-16T11:14:51.077Z,5.27
2018-08-16T11:17:19.525Z,5.00
2018-08-16T11:19:47.979Z,5.60
2018-08-16T11:22:16.390Z,5.83
2018-08-16T11:24:44.706Z,5.23
2018-08-16T11:27:13.093Z,4.30
2018-08-16T11:29:41.582Z,5.67
2018-08-16T11:32:10.005Z,4.57
2018-08-16T11:34:38.475Z,3.50
2018-08-16T11:37:06.878Z,4.43
2018-08-16T11:39:35.274Z,4.03
2018-08-16T11:42:04.371Z,5.40
2018-08-16T11:44:32.731Z,4.60
2018-08-16T11:47:01.046Z,4.40
2018-08-16T11:49:29.436Z,4.10
2018-08-16T11:51:57.916Z,7.17
2018-08-16T11:54:26.309Z,3.70
2018-08-16T11:56:54.691Z,4.40
2018-08-16T11:59:23.075Z,3.87
2018-08-16T12:01:51.470Z,4.67
2018-08-16T12:04:19.860Z,4.00
2018-08-16T12:06:48.241Z,3.73
2018-08-16T12:09:16.815Z,5.10
2018-08-16T12:11:45.181Z,3.63
2018-08-16T12:14:13.546Z,3.83
2018-08-16T12:16:41.940Z,3.80
2018-08-16T12:19:10.374Z,3.60
2018-08-16T12:21:38.774Z,4.20
2018-08-16T12:24:07.131Z,4.40
2018-08-16T12:26:35.551Z,3.90
2018-08-16T12:29:04.100Z,4.60
2018-08-16T12:31:32.392Z,3.77
2018-08-16T12:34:00.714Z,4.57
2018-08-16T12:36:29.112Z,4.50
2018-08-16T12:38:57.719Z,4.13
2018-08-16T12:41:26.117Z,4.63
2018-08-16T12:43:55.220Z,4.20
2018-08-16T12:46:23.649Z,5.20
2018-08-16T12:48:52.090Z,4.40
2018-08-16T12:51:21.056Z,10.23
2018-08-16T12:53:49.395Z,12.57
2018-08-16T12:56:17.821Z,4.43
2018-08-16T12:58:46.193Z,4.03
2018-08-16T13:01:14.576Z,4.40
2018-08-16T13:03:42.866Z,4.80
2018-08-16T13:06:11.294Z,4.27
2018-08-16T13:08:39.813Z,4.07
2018-08-16T13:11:08.397Z,3.90
2018-08-16T13:13:37.125Z,4.80
2018-08-16T13:16:05.745Z,4.80
2018-08-16T13:18:34.169Z,4.70
2018-08-16T13:21:02.595Z,4.63
2018-08-16T13:23:31.026Z,4.23
2018-08-16T13:25:59.358Z,4.40
2018-08-16T13:28:27.792Z,4.60
2018-08-16T13:30:56.176Z,4.23
2018-08-16T13:33:24.682Z,3.73
2018-08-16T13:35:53.053Z,7.23
2018-08-16T13:38:21.515Z,6.57
2018-08-16T13:40:49.951Z,3.83
2018-08-16T13:43:18.413Z,3.40
2018-08-16T13:45:46.824Z,4.10
2018-08-16T13:48:15.314Z,4.83
2018-08-16T13:50:47.881Z,3.90
2018-08-16T13:53:16.309Z,4.53
2018-08-16T13:55:44.711Z,4.60
2018-08-16T13:58:13.098Z,4.20
2018-08-16T14:00:42.177Z,3.70
2018-08-16T14:03:14.796Z,4.20
2018-08-16T14:05:43.255Z,3.67
2018-08-16T14:08:11.675Z,4.23
2018-08-16T14:10:40.048Z,3.90
2018-08-16T14:13:08.456Z,4.73
2018-08-16T14:15:37.026Z,4.47
2018-08-16T14:18:05.483Z,3.80
2018-08-16T14:20:33.937Z,4.87
2018-08-16T14:23:02.395Z,4.07
2018-08-16T14:25:30.795Z,4.37
2018-08-16T14:27:59.228Z,4.10
2018-08-16T14:30:27.542Z,4.13
2018-08-16T14:32:55.946Z,4.40
2018-08-16T14:35:24.400Z,5.07
2018-08-16T14:37:52.777Z,4.93
2018-08-16T14:40:21.146Z,4.27
2018-08-16T14:42:49.717Z,4.43
2018-08-16T14:45:18.095Z,4.20
2018-08-16T14:47:46.503Z,3.73
2018-08-16T14:50:14.898Z,4.30
2018-08-16T14:52:43.275Z,5.27
2018-08-16T14:55:11.950Z,5.30
2018-08-16T14:57:40.340Z,5.20
2018-08-16T15:00:09.698Z,4.20
2018-08-16T15:02:38.225Z,4.30
2018-08-16T15:05:07.513Z,4.27
2018-08-16T15:07:35.919Z,4.47
2018-08-16T15:10:05.177Z,4.27
2018-08-16T15:12:33.787Z,4.17
2018-08-16T15:15:02.286Z,4.07
2018-08-16T15:17:30.653Z,6.57
2018-08-16T15:19:59.137Z,4.03
2018-08-16T15:22:27.545Z,4.17
2018-08-16T15:24:55.967Z,4.37
2018-08-16T15:27:24.353Z,3.73
2018-08-16T15:29:52.690Z,4.40
2018-08-16T15:32:21.123Z,4.43
2018-08-16T15:34:49.418Z,3.87
2018-08-16T15:37:17.753Z,3.83
2018-08-16T15:39:46.151Z,4.87
2018-08-16T15:42:14.665Z,4.10
2018-08-16T15:44:43.054Z,4.00
2018-08-16T15:47:11.471Z,4.37
2018-08-16T15:49:39.985Z,4.60
2018-08-16T15:52:08.317Z,4.70
2018-08-16T15:54:36.760Z,4.37
2018-08-16T15:57:05.241Z,4.40
2018-08-16T15:59:33.666Z,4.20
2018-08-16T16:02:02.029Z,4.63
2018-08-16T16:04:30.421Z,4.17
2018-08-16T16:06:58.847Z,4.70
2018-08-16T16:09:27.222Z,4.23
2018-08-16T16:11:55.566Z,4.57
2018-08-16T16:14:23.972Z,4.70
2018-08-16T16:16:52.398Z,5.33
2018-08-16T16:19:20.810Z,4.20
2018-08-16T16:21:49.189Z,3.93
2018-08-16T16:24:17.632Z,4.37
2018-08-16T16:26:45.983Z,5.03
2018-08-16T16:29:14.333Z,4.07
2018-08-16T16:31:42.752Z,4.20
2018-08-16T16:34:11.135Z,6.43
2018-08-16T16:36:39.519Z,4.83
2018-08-16T16:39:10.397Z,4.80
2018-08-16T16:41:39.006Z,4.90
2018-08-16T16:44:07.486Z,4.40
2018-08-16T16:46:35.855Z,4.90
2018-08-16T16:49:04.632Z,4.90
2018-08-16T16:51:32.975Z,4.97
2018-08-16T16:54:01.383Z,4.10
2018-08-16T16:56:29.951Z,4.37
2018-08-16T16:58:58.387Z,5.57
2018-08-16T17:01:26.771Z,5.53
2018-08-16T17:03:55.174Z,5.13
2018-08-16T17:06:23.594Z,5.83
2018-08-16T17:08:51.970Z,6.23
2018-08-16T17:11:20.380Z,5.37
2018-08-16T17:13:48.814Z,4.77
2018-08-16T17:16:17.268Z,4.90
2018-08-16T17:18:45.651Z,4.77
2018-08-16T17:21:14.130Z,5.50
2018-08-16T17:23:42.638Z,5.17
2018-08-16T17:26:11.277Z,5.30
2018-08-16T17:28:39.626Z,4.60
2018-08-16T17:31:08.105Z,4.87
2018-08-16T17:33:36.482Z,5.40
2018-08-16T17:36:04.903Z,4.77
2018-08-16T17:38:33.285Z,4.73
2018-08-16T17:41:01.927Z,5.40
2018-08-16T17:43:30.393Z,6.43
2018-08-16T17:45:58.877Z,5.27
2018-08-16T17:48:27.277Z,4.80
2018-08-16T17:50:56.289Z,4.47
2018-08-16T17:53:24.689Z,6.10
2018-08-16T17:55:53.075Z,5.20
2018-08-16T17:58:21.486Z,5.20
2018-08-16T18:00:50.845Z,5.20
2018-08-16T18:03:19.228Z,5.27
2018-08-16T18:05:47.812Z,5.13
2018-08-16T18:08:16.159Z,4.70
2018-08-16T18:10:44.760Z,4.97
2018-08-16T18:13:13.188Z,4.83
2018-08-16T18:15:41.546Z,5.07
2018-08-16T18:18:10.400Z,5.80
2018-08-16T18:20:38.814Z,5.37
2018-08-16T18:23:07.233Z,5.33
2018-08-16T18:25:35.698Z,5.47
2018-08-16T18:28:04.218Z,5.40
2018-08-16T18:30:32.698Z,5.43
2018-08-16T18:33:01.095Z,6.00
2018-08-16T18:35:29.520Z,6.70
2018-08-16T18:37:57.920Z,14.17
2018-08-16T18:40:26.342Z,6.63
2018-08-16T18:42:55.000Z,6.17
2018-08-16T18:45:23.361Z,6.70
2018-08-16T18:47:51.969Z,6.93
2018-08-16T18:50:20.609Z,6.53
2018-08-16T18:52:49.013Z,5.70
2018-08-16T18:55:17.407Z,5.90
2018-08-16T18:57:45.880Z,7.00
2018-08-16T19:00:14.440Z,6.03
2018-08-16T19:02:43.167Z,5.93
2018-08-16T19:05:11.617Z,6.33
2018-08-16T19:07:40.088Z,6.37
2018-08-16T19:10:09.732Z,6.13
2018-08-16T19:12:38.320Z,6.83
2018-08-16T19:15:06.825Z,5.90
2018-08-16T19:17:35.243Z,6.20
2018-08-16T19:20:03.825Z,10.70
2018-08-16T19:22:32.535Z,6.40
2018-08-16T19:25:01.005Z,7.07
2018-08-16T19:27:29.397Z,7.70
2018-08-16T19:29:58.800Z,7.83
2018-08-16T19:32:27.291Z,12.63
2018-08-16T19:34:56.706Z,10.27
2018-08-16T19:37:25.158Z,7.70
2018-08-16T19:39:53.716Z,9.30
2018-08-16T19:42:22.133Z,8.70
2018-08-16T19:44:50.578Z,7.60
2018-08-16T19:47:19.102Z,10.13
2018-08-16T19:49:47.609Z,7.67
2018-08-16T19:52:16.515Z,7.83
2018-08-16T19:54:45.256Z,8.90
2018-08-16T19:57:13.770Z,7.83
2018-08-16T19:59:42.228Z,7.53
2018-08-16T20:02:10.722Z,6.40
2018-08-16T20:04:39.219Z,7.83
2018-08-16T20:07:08.007Z,7.20
2018-08-16T20:09:36.384Z,9.50
2018-08-16T20:12:04.838Z,5.70
2018-08-16T20:14:33.362Z,6.20
2018-08-16T20:17:01.955Z,6.67
2018-08-16T20:19:30.437Z,9.13
2018-08-16T20:21:58.786Z,6.03
2018-08-16T20:24:27.275Z,7.80
2018-08-16T20:26:55.763Z,7.33
2018-08-16T20:29:24.254Z,6.70
2018-08-16T20:31:52.684Z,6.03
2018-08-16T20:34:21.174Z,6.90
2018-08-16T20:36:49.624Z,6.60
2018-08-16T20:39:18.222Z,7.13
2018-08-16T20:41:46.873Z,6.73
2018-08-16T20:44:15.302Z,6.40
2018-08-16T20:46:43.894Z,6.30
2018-08-16T20:49:13.122Z,5.80
2018-08-16T20:51:41.549Z,5.53
2018-08-16T20:54:10.784Z,6.13
2018-08-16T20:56:39.465Z,6.00
2018-08-16T20:59:07.923Z,6.77
2018-08-16T21:01:36.450Z,6.37
2018-08-16T21:04:05.015Z,6.10
2018-08-16T21:06:33.619Z,5.90
2018-08-16T21:09:02.174Z,7.23
2018-08-16T21:11:30.701Z,6.77
2018-08-16T21:13:59.225Z,6.47
2018-08-16T21:16:27.765Z,5.80
2018-08-16T21:18:56.278Z,6.57
2018-08-16T21:21:24.848Z,7.23
2018-08-16T21:23:53.355Z,7.33
2018-08-16T21:26:22.171Z,6.70
2018-08-16T21:28:50.679Z,8.93
2018-08-16T21:31:19.159Z,6.87
2018-08-16T21:33:47.715Z,6.87
2018-08-16T21:36:16.241Z,6.40
2018-08-16T21:38:44.672Z,7.40
2018-08-16T21:41:13.167Z,6.77
2018-08-16T21:43:41.756Z,10.13
2018-08-16T21:46:10.163Z,6.50
2018-08-16T21:48:38.704Z,6.30
2018-08-16T21:51:07.171Z,7.47
2018-08-16T21:53:35.672Z,5.97
2018-08-16T21:56:04.159Z,6.53
2018-08-16T21:58:32.634Z,6.00
2018-08-16T22:01:04.755Z,5.60
2018-08-16T22:03:33.197Z,6.30
2018-08-16T22:06:04.194Z,5.80
2018-08-16T22:08:49.684Z,5.83
2018-08-16T22:11:18.165Z,6.43
2018-08-16T22:13:46.653Z,7.13
2018-08-16T22:16:15.121Z,6.13
2018-08-16T22:18:43.514Z,6.10
2018-08-16T22:21:12.070Z,7.33
2018-08-16T22:23:40.567Z,6.73
2018-08-16T22:26:09.101Z,6.13
2018-08-16T22:28:37.531Z,6.37
2018-08-16T22:31:06.113Z,6.17
2018-08-16T22:33:34.535Z,7.20
2018-08-16T22:36:02.919Z,6.30
2018-08-16T22:38:31.841Z,6.10
2018-08-16T22:41:00.223Z,7.60
2018-08-16T22:43:28.626Z,6.33
2018-08-16T22:45:56.988Z,5.87
2018-08-16T22:48:25.477Z,8.50
2018-08-16T22:50:54.006Z,6.27
2018-08-16T22:53:22.509Z,6.43
2018-08-16T22:55:50.952Z,5.20
2018-08-16T22:58:19.409Z,6.53
2018-08-16T23:00:47.829Z,7.63
2018-08-16T23:03:16.338Z,5.70
2018-08-16T23:05:44.735Z,5.90
2018-08-16T23:08:13.151Z,6.57
2018-08-16T23:10:41.570Z,5.33
2018-08-16T23:13:10.047Z,6.47
2018-08-16T23:15:38.450Z,5.43
2018-08-16T23:18:06.901Z,6.50
2018-08-16T23:20:35.389Z,6.00
2018-08-16T23:23:03.753Z,5.10
2018-08-16T23:25:32.217Z,5.80
2018-08-16T23:28:00.630Z,5.30
2018-08-16T23:30:29.092Z,5.30
2018-08-16T23:32:57.685Z,5.57
2018-08-16T23:35:26.086Z,5.90
2018-08-16T23:37:54.482Z,5.10
2018-08-16T23:40:23.047Z,6.00
2018-08-16T23:42:52.294Z,5.57
2018-08-16T23:45:20.673Z,7.20
2018-08-16T23:48:00.420Z,5.47
2018-08-16T23:50:28.842Z,5.27
2018-08-16T23:52:57.403Z,6.43
2018-08-16T23:55:25.853Z,5.33
2018-08-16T23:57:54.310Z,5.27
